Time;durP1;ratioP1;P1;durP2;ratioP2;P2;SDS_P1;SDS_P2;PMS_P1;PMS_P2;Temp;Humidity;BMP_temperature;BMP_pressure;BME280_temperature;BME280_humidity;BME280_pressure;Samples;Min_cycle;Max_cycle;Signal;HPM_P1;HPM_P2
2021/03/15 00:00:32;;;;;;;8.55;7.00;;;;;;;;;;5030571;28;20384;-85
2021/03/15 00:02:58;;;;;;;8.40;6.65;;;;;;;;;;5028176;28;20814;-88
2021/03/15 00:05:24;;;;;;;8.30;6.80;;;;;;;;;;5028680;28;20752;-88
2021/03/15 00:07:50;;;;;;;9.13;6.60;;;;;;;;;;5012257;28;20409;-86
2021/03/15 00:10:16;;;;;;;10.02;6.88;;;;;;;;;;5012664;28;20495;-85
2021/03/15 00:12:42;;;;;;;8.95;7.38;;;;;;;;;;5029653;28;20396;-85
2021/03/15 00:15:11;;;;;;;9.25;7.25;;;;;;;;;;5029328;28;20388;-84
2021/03/15 00:17:37;;;;;;;11.52;7.28;;;;;;;;;;5011860;28;20891;-88
2021/03/15 00:20:04;;;;;;;11.35;7.00;;;;;;;;;;5011849;28;20385;-88
2021/03/15 00:22:30;;;;;;;8.75;7.03;;;;;;;;;;5012608;28;20388;-87
2021/03/15 00:24:56;;;;;;;11.00;7.07;;;;;;;;;;5030280;28;20467;-87
2021/03/15 00:27:22;;;;;;;8.97;6.70;;;;;;;;;;5030293;28;20441;-84
2021/03/15 00:29:50;;;;;;;8.93;6.05;;;;;;;;;;5012769;28;20370;-90
2021/03/15 00:32:18;;;;;;;10.25;6.40;;;;;;;;;;5012697;28;20416;-86
2021/03/15 00:34:44;;;;;;;8.27;6.07;;;;;;;;;;5030065;28;20488;-87
2021/03/15 00:37:10;;;;;;;10.60;6.28;;;;;;;;;;5012731;28;20436;-85
2021/03/15 00:39:36;;;;;;;10.00;5.75;;;;;;;;;;5012390;28;20884;-86
2021/03/15 00:42:03;;;;;;;7.87;5.67;;;;;;;;;;5030109;28;20381;-88
2021/03/15 00:44:28;;;;;;;9.32;5.80;;;;;;;;;;5012425;28;20384;-86
2021/03/15 00:46:54;;;;;;;8.90;5.80;;;;;;;;;;5012508;28;20811;-89
2021/03/15 00:49:20;;;;;;;8.33;5.60;;;;;;;;;;5030041;28;20385;-86
2021/03/15 00:51:46;;;;;;;10.30;6.43;;;;;;;;;;5012334;28;20468;-87
2021/03/15 00:54:12;;;;;;;9.38;6.05;;;;;;;;;;5012593;28;20385;-87
2021/03/15 00:56:38;;;;;;;11.57;6.22;;;;;;;;;;5012234;28;20390;-82
2021/03/15 00:59:04;;;;;;;11.00;5.78;;;;;;;;;;5012231;28;20386;-85
2021/03/15 01:01:30;;;;;;;9.53;6.30;;;;;;;;;;5029956;28;20457;-85
2021/03/15 01:03:56;;;;;;;8.65;6.18;;;;;;;;;;5030240;28;20378;-84
2021/03/15 01:06:22;;;;;;;8.55;5.57;;;;;;;;;;5015658;28;20404;-87
2021/03/15 01:08:48;;;;;;;9.27;5.82;;;;;;;;;;5033281;28;20365;-88
2021/03/15 01:11:14;;;;;;;11.45;6.80;;;;;;;;;;5015427;28;20408;-86
2021/03/15 01:13:40;;;;;;;12.03;6.27;;;;;;;;;;5033477;28;20498;-83
2021/03/15 01:16:06;;;;;;;10.10;6.15;;;;;;;;;;5033280;28;20860;-87
2021/03/15 01:18:32;;;;;;;13.02;6.35;;;;;;;;;;5015458;28;20436;-86
2021/03/15 01:20:58;;;;;;;9.55;6.47;;;;;;;;;;5033344;28;20456;-86
2021/03/15 01:23:24;;;;;;;9.57;6.07;;;;;;;;;;5015499;28;20797;-86
2021/03/15 01:25:50;;;;;;;10.60;5.97;;;;;;;;;;5015421;28;20373;-86
2021/03/15 01:28:17;;;;;;;11.82;7.25;;;;;;;;;;5015318;28;20385;-85
2021/03/15 01:30:44;;;;;;;9.82;7.28;;;;;;;;;;5033128;28;20378;-88
2021/03/15 01:33:10;;;;;;;10.35;6.10;;;;;;;;;;5033020;28;20386;-85
2021/03/15 01:35:37;;;;;;;10.52;5.68;;;;;;;;;;5015104;28;20396;-85
2021/03/15 01:38:05;;;;;;;9.13;5.78;;;;;;;;;;5015275;28;20370;-83
2021/03/15 01:40:31;;;;;;;11.13;5.63;;;;;;;;;;5015073;28;20416;-85
2021/03/15 01:42:57;;;;;;;12.37;5.80;;;;;;;;;;5032925;28;20373;-85
2021/03/15 01:45:23;;;;;;;10.38;5.57;;;;;;;;;;5014711;28;20390;-85
2021/03/15 01:47:49;;;;;;;9.05;5.00;;;;;;;;;;5015067;28;20413;-84
2021/03/15 01:50:16;;;;;;;9.27;5.60;;;;;;;;;;5032715;28;20455;-86
2021/03/15 01:52:42;;;;;;;10.90;5.22;;;;;;;;;;5014766;28;20373;-84
2021/03/15 01:55:09;;;;;;;11.38;5.88;;;;;;;;;;5032730;28;20735;-88
2021/03/15 01:57:36;;;;;;;8.83;5.07;;;;;;;;;;5014630;28;20384;-83
2021/03/15 02:00:02;;;;;;;8.37;5.13;;;;;;;;;;5032199;28;20461;-87
2021/03/15 02:02:28;;;;;;;10.02;5.15;;;;;;;;;;5032232;28;20382;-87
2021/03/15 02:04:54;;;;;;;10.20;4.73;;;;;;;;;;5014466;28;20864;-84
2021/03/15 02:07:20;;;;;;;7.80;4.65;;;;;;;;;;5014353;28;20520;-87
2021/03/15 02:09:46;;;;;;;8.77;4.30;;;;;;;;;;5014266;28;20408;-86
2021/03/15 02:12:28;;;;;;;7.20;4.18;;;;;;;;;;5014525;28;20432;-86
2021/03/15 02:14:54;;;;;;;7.83;3.97;;;;;;;;;;5014312;28;20421;-85
2021/03/15 02:17:33;;;;;;;6.37;4.10;;;;;;;;;;5013567;28;20417;-84
2021/03/15 02:20:04;;;;;;;5.93;3.90;;;;;;;;;;5031991;28;20384;-86
2021/03/15 02:22:36;;;;;;;8.38;4.47;;;;;;;;;;5014153;28;20476;-87
2021/03/15 02:25:21;;;;;;;8.55;4.65;;;;;;;;;;5031916;28;20445;-84
2021/03/15 02:27:53;;;;;;;8.40;5.10;;;;;;;;;;5031775;28;20412;-85
2021/03/15 02:30:33;;;;;;;8.70;4.88;;;;;;;;;;5013866;28;20392;-85
2021/03/15 02:33:02;;;;;;;10.30;4.65;;;;;;;;;;5014354;28;20742;-86
2021/03/15 02:35:29;;;;;;;8.57;5.30;;;;;;;;;;5014032;28;20390;-86
2021/03/15 02:38:14;;;;;;;8.32;5.22;;;;;;;;;;5014000;28;20378;-86
2021/03/15 02:40:41;;;;;;;10.57;5.40;;;;;;;;;;5032142;28;20366;-83
2021/03/15 02:43:09;;;;;;;9.30;5.65;;;;;;;;;;5031760;28;20384;-86
2021/03/15 02:45:36;;;;;;;9.77;5.20;;;;;;;;;;5031601;28;20370;-87
2021/03/15 02:48:07;;;;;;;11.60;5.60;;;;;;;;;;5013570;28;20410;-85
2021/03/15 02:50:34;;;;;;;11.57;6.35;;;;;;;;;;5031336;28;20382;-84
2021/03/15 02:53:01;;;;;;;13.10;6.07;;;;;;;;;;5031569;28;20377;-86
2021/03/15 02:55:28;;;;;;;12.20;5.75;;;;;;;;;;5013781;28;20394;-87
2021/03/15 02:57:56;;;;;;;10.33;5.93;;;;;;;;;;5013961;28;20875;-88
2021/03/15 03:00:23;;;;;;;14.27;6.63;;;;;;;;;;5013826;28;20807;-87
2021/03/15 03:02:51;;;;;;;12.07;6.75;;;;;;;;;;5013750;28;20366;-85
2021/03/15 03:05:18;;;;;;;12.98;7.50;;;;;;;;;;5013757;28;20392;-84
2021/03/15 03:07:46;;;;;;;12.57;7.30;;;;;;;;;;5013613;28;20406;-85
2021/03/15 03:10:12;;;;;;;13.27;7.57;;;;;;;;;;5013458;28;20389;-84
2021/03/15 03:12:40;;;;;;;13.13;7.90;;;;;;;;;;5013609;28;20859;-88
2021/03/15 03:15:07;;;;;;;14.18;8.70;;;;;;;;;;5013283;28;20380;-87
2021/03/15 03:17:38;;;;;;;15.90;8.68;;;;;;;;;;5013360;28;20381;-85
2021/03/15 03:20:05;;;;;;;13.52;8.30;;;;;;;;;;5013806;28;20468;-91
2021/03/15 03:22:31;;;;;;;15.93;9.32;;;;;;;;;;5013875;28;20945;-87
2021/03/15 03:24:58;;;;;;;15.60;10.00;;;;;;;;;;5013682;28;20442;-87
2021/03/15 03:27:24;;;;;;;17.20;9.98;;;;;;;;;;5013172;28;20413;-86
2021/03/15 03:29:50;;;;;;;20.27;11.00;;;;;;;;;;5013161;28;20393;-88
2021/03/15 03:32:18;;;;;;;16.02;10.25;;;;;;;;;;5013354;28;20382;-86
2021/03/15 03:34:44;;;;;;;17.48;11.10;;;;;;;;;;5013317;28;20396;-84
2021/03/15 03:37:10;;;;;;;16.80;10.10;;;;;;;;;;5031013;28;20424;-82
2021/03/15 03:39:36;;;;;;;15.02;9.95;;;;;;;;;;5031050;28;20382;-87
2021/03/15 03:42:02;;;;;;;22.48;11.75;;;;;;;;;;5030908;28;20377;-84
2021/03/15 03:44:28;;;;;;;20.08;11.20;;;;;;;;;;5013156;28;20385;-87
2021/03/15 03:46:54;;;;;;;21.73;11.93;;;;;;;;;;5030786;28;20401;-83
2021/03/15 03:49:20;;;;;;;20.23;11.20;;;;;;;;;;5013026;28;20473;-88
2021/03/15 03:51:54;;;;;;;22.35;12.25;;;;;;;;;;5013280;28;20386;-85
2021/03/15 03:54:26;;;;;;;21.55;11.77;;;;;;;;;;5013111;28;20386;-85
2021/03/15 03:56:57;;;;;;;16.30;11.27;;;;;;;;;;5030762;28;20373;-85
2021/03/15 03:59:24;;;;;;;20.73;11.38;;;;;;;;;;5013038;28;20753;-83
2021/03/15 04:01:52;;;;;;;22.23;11.45;;;;;;;;;;5013253;28;20468;-87
2021/03/15 04:04:19;;;;;;;21.70;11.75;;;;;;;;;;5030375;28;20869;-85
2021/03/15 04:06:47;;;;;;;19.92;11.95;;;;;;;;;;5012994;28;20406;-83
2021/03/15 04:09:15;;;;;;;22.65;12.52;;;;;;;;;;5030375;28;20370;-89
2021/03/15 04:11:50;;;;;;;16.25;11.88;;;;;;;;;;5030655;28;20405;-84
2021/03/15 04:14:25;;;;;;;19.23;12.40;;;;;;;;;;5030616;28;20381;-89
2021/03/15 04:16:51;;;;;;;22.98;13.57;;;;;;;;;;5030553;28;20370;-84
2021/03/15 04:19:21;;;;;;;25.08;13.45;;;;;;;;;;5013029;28;20386;-88
2021/03/15 04:21:49;;;;;;;20.55;12.57;;;;;;;;;;5012655;28;20382;-85
2021/03/15 04:24:17;;;;;;;20.80;13.02;;;;;;;;;;5030229;28;20431;-88
2021/03/15 04:26:43;;;;;;;20.73;13.15;;;;;;;;;;5012502;28;20408;-88
2021/03/15 04:29:10;;;;;;;20.33;13.57;;;;;;;;;;5012968;28;20957;-85
2021/03/15 04:31:36;;;;;;;22.33;13.38;;;;;;;;;;5030514;28;20377;-83
2021/03/15 04:34:02;;;;;;;20.75;12.95;;;;;;;;;;5012900;28;20385;-83
2021/03/15 04:36:28;;;;;;;22.40;13.73;;;;;;;;;;5030110;28;20438;-85
2021/03/15 04:38:57;;;;;;;19.75;14.25;;;;;;;;;;5030839;28;20416;-89
2021/03/15 04:41:23;;;;;;;21.33;13.50;;;;;;;;;;5016573;28;20958;-89
2021/03/15 04:43:50;;;;;;;22.67;13.47;;;;;;;;;;5017204;28;20365;-86
2021/03/15 04:46:19;;;;;;;21.08;13.43;;;;;;;;;;5034235;28;20473;-86
2021/03/15 04:48:46;;;;;;;19.27;13.48;;;;;;;;;;5016384;28;20372;-84
2021/03/15 04:51:12;;;;;;;22.00;12.80;;;;;;;;;;5034003;28;20471;-88
2021/03/15 04:53:39;;;;;;;22.67;13.07;;;;;;;;;;5034095;28;20381;-85
2021/03/15 04:56:14;;;;;;;24.47;13.67;;;;;;;;;;5034115;28;20373;-90
2021/03/15 04:58:41;;;;;;;25.65;13.65;;;;;;;;;;5033813;28;20377;-85
2021/03/15 05:01:08;;;;;;;20.30;13.13;;;;;;;;;;5016370;28;20456;-83
2021/03/15 05:03:35;;;;;;;23.27;13.30;;;;;;;;;;5033782;28;20375;-84
2021/03/15 05:06:01;;;;;;;23.65;13.82;;;;;;;;;;5016164;28;20882;-85
2021/03/15 05:08:40;;;;;;;21.20;13.73;;;;;;;;;;5016337;28;20390;-86
2021/03/15 05:11:08;;;;;;;26.50;14.88;;;;;;;;;;5033480;28;20408;-85
2021/03/15 05:13:34;;;;;;;23.85;13.88;;;;;;;;;;5033724;28;20377;-87
2021/03/15 05:16:01;;;;;;;20.13;14.00;;;;;;;;;;5016093;28;20425;-87
2021/03/15 05:18:28;;;;;;;18.67;14.00;;;;;;;;;;5033337;28;20889;-87
2021/03/15 05:20:54;;;;;;;18.15;13.55;;;;;;;;;;5033492;28;20373;-87
2021/03/15 05:23:21;;;;;;;18.25;13.63;;;;;;;;;;5033700;28;20973;-86
2021/03/15 05:25:50;;;;;;;19.10;13.80;;;;;;;;;;5033548;28;20418;-84
2021/03/15 05:28:17;;;;;;;22.67;13.88;;;;;;;;;;5015892;28;20409;-82
2021/03/15 05:30:45;;;;;;;22.42;14.80;;;;;;;;;;5033655;28;20452;-88
2021/03/15 05:33:14;;;;;;;19.90;13.25;;;;;;;;;;5015565;28;20418;-86
2021/03/15 05:35:41;;;;;;;23.27;14.13;;;;;;;;;;5033665;28;20369;-85
2021/03/15 05:38:08;;;;;;;19.52;13.27;;;;;;;;;;5017273;28;20392;-84
2021/03/15 05:40:35;;;;;;;24.83;14.30;;;;;;;;;;5016609;28;20366;-83
2021/03/15 05:43:24;;;;;;;21.98;13.52;;;;;;;;;;5016000;28;20389;-89
2021/03/15 05:46:09;;;;;;;21.50;12.98;;;;;;;;;;5015774;28;20385;-82
2021/03/15 05:48:54;;;;;;;18.70;13.00;;;;;;;;;;5033158;28;20400;-85
2021/03/15 05:51:23;;;;;;;19.67;12.82;;;;;;;;;;5015087;28;20385;-88
2021/03/15 05:54:17;;;;;;;19.95;13.60;;;;;;;;;;5032975;28;20373;-87
2021/03/15 05:56:52;;;;;;;20.75;13.23;;;;;;;;;;5033305;28;20377;-82
2021/03/15 05:59:36;;;;;;;23.77;13.77;;;;;;;;;;5017661;28;20473;-87
2021/03/15 06:02:08;;;;;;;20.80;14.13;;;;;;;;;;5034928;28;20374;-88
2021/03/15 06:04:51;;;;;;;22.88;13.80;;;;;;;;;;5015516;28;20403;-84
2021/03/15 06:07:37;;;;;;;20.02;12.88;;;;;;;;;;5016960;28;20433;-89
2021/03/15 06:10:07;;;;;;;21.98;14.00;;;;;;;;;;5027450;28;20390;-89
2021/03/15 06:12:38;;;;;;;18.90;13.30;;;;;;;;;;5032922;28;20362;-85
2021/03/15 06:15:05;;;;;;;21.13;13.52;;;;;;;;;;5016025;28;20389;-85
2021/03/15 06:17:32;;;;;;;20.70;13.17;;;;;;;;;;5033969;28;20458;-85
2021/03/15 06:19:59;;;;;;;19.25;12.60;;;;;;;;;;5015325;28;20394;-85
2021/03/15 06:22:25;;;;;;;22.70;12.88;;;;;;;;;;5033740;28;20381;-86
2021/03/15 06:24:51;;;;;;;19.75;12.50;;;;;;;;;;5032539;28;20385;-87
2021/03/15 06:27:18;;;;;;;20.17;12.02;;;;;;;;;;5014603;28;20445;-85
2021/03/15 06:29:44;;;;;;;18.43;12.20;;;;;;;;;;5014575;28;20381;-83
2021/03/15 06:32:10;;;;;;;20.38;13.30;;;;;;;;;;5014768;28;20382;-83
2021/03/15 06:34:37;;;;;;;18.75;12.10;;;;;;;;;;5014527;28;20709;-89
2021/03/15 06:37:03;;;;;;;20.40;11.93;;;;;;;;;;5032098;28;20400;-84
2021/03/15 06:39:29;;;;;;;18.17;11.90;;;;;;;;;;5014199;28;20439;-89
2021/03/15 06:41:57;;;;;;;18.80;10.70;;;;;;;;;;5032054;28;20413;-85
2021/03/15 06:44:23;;;;;;;15.60;10.77;;;;;;;;;;5032110;28;20743;-85
2021/03/15 06:46:50;;;;;;;20.60;10.98;;;;;;;;;;5032076;28;20472;-89
2021/03/15 06:49:16;;;;;;;17.90;10.93;;;;;;;;;;5014130;28;20400;-88
2021/03/15 06:51:59;;;;;;;16.65;10.52;;;;;;;;;;5014373;28;20373;-87
2021/03/15 06:54:26;;;;;;;18.87;10.37;;;;;;;;;;5031741;28;20468;-87
2021/03/15 06:57:11;;;;;;;14.90;10.30;;;;;;;;;;5014157;28;20403;-92
2021/03/15 06:59:46;;;;;;;17.25;10.65;;;;;;;;;;5014005;28;20421;-86
2021/03/15 07:02:13;;;;;;;19.40;10.95;;;;;;;;;;5013462;28;20378;-84
2021/03/15 07:04:39;;;;;;;13.77;10.30;;;;;;;;;;5014221;28;20405;-87
2021/03/15 07:07:05;;;;;;;16.97;10.77;;;;;;;;;;5014004;28;20448;-87
2021/03/15 07:09:34;;;;;;;17.23;10.57;;;;;;;;;;5013837;28;20412;-85
2021/03/15 07:12:03;;;;;;;15.23;10.95;;;;;;;;;;5013676;28;20417;-86
2021/03/15 07:14:29;;;;;;;17.08;10.55;;;;;;;;;;5013547;28;20385;-90
2021/03/15 07:17:00;;;;;;;16.17;10.95;;;;;;;;;;5013478;28;20389;-88
2021/03/15 07:19:26;;;;;;;15.23;11.32;;;;;;;;;;5013432;28;20385;-83
2021/03/15 07:21:52;;;;;;;20.02;11.55;;;;;;;;;;5013551;28;20376;-87
2021/03/15 07:24:18;;;;;;;20.88;11.48;;;;;;;;;;5013786;28;20385;-84
2021/03/15 07:26:45;;;;;;;18.92;11.52;;;;;;;;;;5013471;28;20485;-86
2021/03/15 07:29:12;;;;;;;15.80;11.40;;;;;;;;;;5013167;28;20385;-88
2021/03/15 07:31:38;;;;;;;16.13;11.85;;;;;;;;;;5031721;28;20374;-86
2021/03/15 07:34:04;;;;;;;16.27;11.02;;;;;;;;;;5013405;28;20381;-85
2021/03/15 07:36:31;;;;;;;14.55;11.40;;;;;;;;;;5031193;28;20450;-86
2021/03/15 07:38:58;;;;;;;18.40;11.77;;;;;;;;;;5013865;28;20381;-86
2021/03/15 07:41:24;;;;;;;15.53;11.67;;;;;;;;;;5013491;28;20406;-86
2021/03/15 07:43:51;;;;;;;14.68;11.40;;;;;;;;;;5031083;28;20428;-84
2021/03/15 07:46:21;;;;;;;13.57;11.33;;;;;;;;;;5013360;28;20384;-87
2021/03/15 07:48:47;;;;;;;12.45;10.75;;;;;;;;;;5013526;28;20385;-87
2021/03/15 07:51:13;;;;;;;14.32;11.30;;;;;;;;;;5032993;28;20821;-89
2021/03/15 07:53:41;;;;;;;14.30;10.87;;;;;;;;;;5021668;28;20405;-84
2021/03/15 07:56:07;;;;;;;15.03;11.30;;;;;;;;;;5018409;28;20388;-89
2021/03/15 07:58:34;;;;;;;14.00;11.90;;;;;;;;;;5017589;28;20436;-87
2021/03/15 08:01:01;;;;;;;13.85;11.32;;;;;;;;;;5032209;28;20375;-84
2021/03/15 08:03:27;;;;;;;15.10;10.68;;;;;;;;;;5003008;28;20450;-87
2021/03/15 08:05:54;;;;;;;14.07;10.75;;;;;;;;;;5016143;28;20457;-86
2021/03/15 08:08:20;;;;;;;12.30;10.80;;;;;;;;;;5043723;28;20397;-86
2021/03/15 08:10:46;;;;;;;13.43;10.65;;;;;;;;;;5033360;28;20391;-85
2021/03/15 08:13:13;;;;;;;12.23;10.35;;;;;;;;;;5029873;28;20377;-86
2021/03/15 08:15:40;;;;;;;12.85;10.48;;;;;;;;;;5004828;28;20383;-83
2021/03/15 08:18:11;;;;;;;14.30;10.32;;;;;;;;;;5023975;28;20373;-88
2021/03/15 08:20:41;;;;;;;11.98;10.55;;;;;;;;;;5012033;28;20381;-82
2021/03/15 08:23:09;;;;;;;13.60;10.18;;;;;;;;;;5011344;28;20827;-84
2021/03/15 08:25:36;;;;;;;11.60;10.40;;;;;;;;;;5027475;28;20389;-83
2021/03/15 08:28:03;;;;;;;11.07;9.57;;;;;;;;;;5031359;28;20405;-85
2021/03/15 08:30:30;;;;;;;13.20;10.57;;;;;;;;;;5032422;28;20369;-82
2021/03/15 08:32:57;;;;;;;11.55;10.18;;;;;;;;;;5013470;28;20399;-90
2021/03/15 08:35:23;;;;;;;11.65;9.80;;;;;;;;;;4996332;28;20442;-83
2021/03/15 08:37:55;;;;;;;11.02;9.80;;;;;;;;;;5014329;28;20733;-84
2021/03/15 08:40:40;;;;;;;10.13;9.13;;;;;;;;;;5033444;28;20458;-86
2021/03/15 08:43:21;;;;;;;10.33;9.33;;;;;;;;;;5015925;28;20854;-84
2021/03/15 08:45:47;;;;;;;11.07;9.50;;;;;;;;;;5024172;28;20417;-83
2021/03/15 08:48:13;;;;;;;10.57;9.07;;;;;;;;;;5014883;28;20436;-87
2021/03/15 08:50:40;;;;;;;11.10;9.10;;;;;;;;;;5033360;28;20531;-85
2021/03/15 08:53:06;;;;;;;10.50;8.88;;;;;;;;;;5033248;28;20421;-85
2021/03/15 08:55:49;;;;;;;11.70;8.95;;;;;;;;;;5016096;28;20370;-85
2021/03/15 08:58:41;;;;;;;11.63;8.77;;;;;;;;;;5014499;28;20382;-87
2021/03/15 09:01:10;;;;;;;9.30;8.23;;;;;;;;;;5012076;28;20396;-83
2021/03/15 09:03:49;;;;;;;9.37;8.47;;;;;;;;;;5024602;28;20397;-86
2021/03/15 09:06:15;;;;;;;9.07;8.10;;;;;;;;;;5031344;28;20917;-84
2021/03/15 09:08:58;;;;;;;10.02;8.13;;;;;;;;;;5000811;28;20440;-86
2021/03/15 09:11:44;;;;;;;10.57;8.60;;;;;;;;;;5031313;28;20389;-83
2021/03/15 09:14:14;;;;;;;11.27;8.63;;;;;;;;;;5008028;28;20394;-88
2021/03/15 09:16:43;;;;;;;10.90;8.37;;;;;;;;;;5013344;28;20734;-85
2021/03/15 09:19:22;;;;;;;9.18;8.27;;;;;;;;;;5000814;28;20424;-89
2021/03/15 09:21:50;;;;;;;8.90;8.00;;;;;;;;;;5032278;28;20395;-85
2021/03/15 09:24:35;;;;;;;8.60;7.75;;;;;;;;;;5032913;28;20397;-87
2021/03/15 09:27:11;;;;;;;12.13;9.95;;;;;;;;;;5032837;28;20472;-87
2021/03/15 09:29:37;;;;;;;10.65;8.07;;;;;;;;;;5015028;28;20370;-91
2021/03/15 09:32:03;;;;;;;8.38;7.43;;;;;;;;;;5013822;28;20476;-86
2021/03/15 09:34:29;;;;;;;8.53;7.03;;;;;;;;;;5026222;28;20886;-81
2021/03/15 09:36:58;;;;;;;7.00;6.22;;;;;;;;;;5011246;28;20501;-83
2021/03/15 09:39:25;;;;;;;7.85;6.90;;;;;;;;;;5030087;28;20890;-83
2021/03/15 09:41:51;;;;;;;7.32;6.50;;;;;;;;;;4998046;28;20385;-86
2021/03/15 09:44:24;;;;;;;8.40;6.90;;;;;;;;;;5026319;28;20369;-84
2021/03/15 09:46:51;;;;;;;7.50;6.70;;;;;;;;;;5029847;28;20401;-86
2021/03/15 09:49:34;;;;;;;7.82;6.72;;;;;;;;;;5030895;28;20431;-85
2021/03/15 09:52:15;;;;;;;7.30;6.60;;;;;;;;;;4993946;28;20391;-86
2021/03/15 09:54:42;;;;;;;9.85;8.95;;;;;;;;;;5014896;28;20382;-86
2021/03/15 09:57:09;;;;;;;10.00;8.50;;;;;;;;;;5022074;28;20469;-84
2021/03/15 09:59:35;;;;;;;10.03;7.43;;;;;;;;;;5030281;28;20392;-87
2021/03/15 10:02:01;;;;;;;8.00;7.20;;;;;;;;;;5012864;28;20728;-85
2021/03/15 10:04:36;;;;;;;7.15;6.53;;;;;;;;;;5012419;28;20413;-82
2021/03/15 10:07:11;;;;;;;7.00;6.30;;;;;;;;;;5030153;28;20413;-88
2021/03/15 10:09:39;;;;;;;6.70;6.00;;;;;;;;;;5012297;28;20432;-84
2021/03/15 10:12:08;;;;;;;5.93;5.32;;;;;;;;;;5006623;28;21076;-88
2021/03/15 10:14:39;;;;;;;6.57;5.75;;;;;;;;;;4998058;28;20430;-82
2021/03/15 10:17:05;;;;;;;6.55;5.90;;;;;;;;;;4991552;28;20984;-87
2021/03/15 10:19:32;;;;;;;6.63;6.03;;;;;;;;;;4998591;28;20395;-83
2021/03/15 10:22:11;;;;;;;5.60;5.10;;;;;;;;;;5019024;28;20383;-84
2021/03/15 10:24:38;;;;;;;5.68;5.18;;;;;;;;;;5029038;28;20381;-86
2021/03/15 10:27:06;;;;;;;5.50;5.00;;;;;;;;;;5007628;28;20492;-82
2021/03/15 10:29:33;;;;;;;5.75;5.20;;;;;;;;;;5025269;28;20378;-87
2021/03/15 10:32:02;;;;;;;5.30;4.75;;;;;;;;;;5024150;28;21197;-86
2021/03/15 10:34:28;;;;;;;5.22;4.72;;;;;;;;;;5027520;28;20476;-84
2021/03/15 10:36:57;;;;;;;7.03;5.07;;;;;;;;;;5026127;28;20912;-85
2021/03/15 10:39:24;;;;;;;7.23;4.17;;;;;;;;;;5020591;28;20457;-87
2021/03/15 10:41:51;;;;;;;6.53;4.20;;;;;;;;;;4997892;28;20394;-85
2021/03/15 10:44:21;;;;;;;5.57;3.70;;;;;;;;;;5023724;28;20459;-85
2021/03/15 10:46:53;;;;;;;5.75;3.60;;;;;;;;;;5001981;28;20484;-88
2021/03/15 10:49:26;;;;;;;4.32;3.90;;;;;;;;;;5006286;28;20431;-86
2021/03/15 10:51:53;;;;;;;3.58;3.28;;;;;;;;;;5007613;28;20368;-85
2021/03/15 10:54:33;;;;;;;4.82;3.50;;;;;;;;;;5023503;28;20386;-84
2021/03/15 10:57:28;;;;;;;4.72;3.70;;;;;;;;;;5016517;28;20373;-90
2021/03/15 10:59:54;;;;;;;4.20;3.75;;;;;;;;;;4991446;28;20381;-85
2021/03/15 11:02:25;;;;;;;3.95;3.58;;;;;;;;;;5006953;28;20391;-90
2021/03/15 11:04:52;;;;;;;3.97;3.33;;;;;;;;;;5019370;28;21188;-82
2021/03/15 11:07:28;;;;;;;3.50;3.15;;;;;;;;;;5015979;28;20394;-87
2021/03/15 11:09:56;;;;;;;3.72;3.42;;;;;;;;;;5001943;28;20409;-84
2021/03/15 11:12:34;;;;;;;3.55;3.15;;;;;;;;;;5002990;28;20365;-86
2021/03/15 11:15:08;;;;;;;3.33;2.70;;;;;;;;;;5016074;28;20381;-85
2021/03/15 11:17:39;;;;;;;3.83;3.00;;;;;;;;;;5026896;28;20408;-83
2021/03/15 11:20:07;;;;;;;3.50;3.20;;;;;;;;;;5014554;28;20879;-87
2021/03/15 11:22:50;;;;;;;4.90;3.60;;;;;;;;;;5008222;28;20394;-86
2021/03/15 11:25:16;;;;;;;4.47;3.80;;;;;;;;;;5025065;28;20388;-81
2021/03/15 11:27:46;;;;;;;4.75;3.63;;;;;;;;;;5033456;28;20441;-82
2021/03/15 11:30:19;;;;;;;3.45;3.15;;;;;;;;;;5030505;28;20387;-84
2021/03/15 11:32:46;;;;;;;5.10;4.03;;;;;;;;;;5012860;28;20385;-84
2021/03/15 11:35:22;;;;;;;3.90;3.50;;;;;;;;;;5015210;28;20384;-88
2021/03/15 11:37:51;;;;;;;3.67;3.30;;;;;;;;;;5010395;28;20409;-88
2021/03/15 11:40:34;;;;;;;3.67;2.90;;;;;;;;;;5024998;28;20451;-86
2021/03/15 11:43:00;;;;;;;3.72;3.40;;;;;;;;;;5007773;28;20461;-84
2021/03/15 11:45:27;;;;;;;3.87;3.30;;;;;;;;;;5027438;28;21768;-87
2021/03/15 11:47:54;;;;;;;4.13;3.38;;;;;;;;;;5027261;28;20437;-86
2021/03/15 11:50:24;;;;;;;4.27;3.87;;;;;;;;;;5008371;28;20899;-86
2021/03/15 11:52:52;;;;;;;4.35;3.63;;;;;;;;;;5009151;28;20484;-86
2021/03/15 11:55:18;;;;;;;4.75;3.90;;;;;;;;;;5027449;28;20753;-83
2021/03/15 11:57:45;;;;;;;4.88;3.95;;;;;;;;;;5009329;28;20378;-81
2021/03/15 12:00:12;;;;;;;4.50;4.10;;;;;;;;;;5009256;28;20373;-86
2021/03/15 12:02:39;;;;;;;4.68;4.18;;;;;;;;;;5026218;28;20388;-87
2021/03/15 12:05:07;;;;;;;7.60;4.85;;;;;;;;;;5025850;28;20397;-85
2021/03/15 12:07:36;;;;;;;5.60;4.50;;;;;;;;;;5009642;28;20423;-85
2021/03/15 12:10:02;;;;;;;6.03;4.88;;;;;;;;;;5025833;28;20890;-84
2021/03/15 12:12:28;;;;;;;6.72;5.75;;;;;;;;;;5010980;28;20393;-87
2021/03/15 12:14:55;;;;;;;6.70;5.63;;;;;;;;;;5019026;28;20390;-87
2021/03/15 12:17:21;;;;;;;7.53;5.70;;;;;;;;;;5006380;28;20377;-88
2021/03/15 12:19:50;;;;;;;5.73;5.10;;;;;;;;;;5023173;28;20908;-82
2021/03/15 12:22:17;;;;;;;7.10;5.07;;;;;;;;;;5026068;28;20385;-84
2021/03/15 12:24:44;;;;;;;7.82;5.30;;;;;;;;;;5023371;28;20380;-81
2021/03/15 12:27:10;;;;;;;6.53;5.50;;;;;;;;;;5025760;28;20460;-81
2021/03/15 12:29:37;;;;;;;7.50;5.93;;;;;;;;;;5008094;28;20444;-83
2021/03/15 12:32:04;;;;;;;7.22;6.20;;;;;;;;;;5003880;28;20393;-83
2021/03/15 12:34:30;;;;;;;6.30;5.70;;;;;;;;;;5024547;28;20375;-88
2021/03/15 12:36:56;;;;;;;8.88;5.78;;;;;;;;;;5031948;28;20391;-80
2021/03/15 12:39:23;;;;;;;7.18;5.85;;;;;;;;;;5014283;28;20391;-85
2021/03/15 12:41:49;;;;;;;8.88;5.93;;;;;;;;;;5007324;28;20781;-83
2021/03/15 12:44:15;;;;;;;8.30;6.63;;;;;;;;;;5025551;28;20398;-91
2021/03/15 12:46:41;;;;;;;9.75;7.18;;;;;;;;;;5009080;28;20413;-86
2021/03/15 12:49:07;;;;;;;10.70;8.40;;;;;;;;;;5011102;28;20395;-88
2021/03/15 12:51:33;;;;;;;9.63;7.57;;;;;;;;;;5025337;28;20427;-85
2021/03/15 12:54:01;;;;;;;7.25;5.85;;;;;;;;;;5031855;28;20468;-88
2021/03/15 12:56:27;;;;;;;8.82;5.65;;;;;;;;;;5006840;28;20394;-87
2021/03/15 12:58:54;;;;;;;6.53;5.45;;;;;;;;;;5008921;28;20436;-83
2021/03/15 13:01:20;;;;;;;8.35;6.07;;;;;;;;;;5010819;28;20876;-84
2021/03/15 13:03:46;;;;;;;8.13;6.43;;;;;;;;;;5024319;28;20387;-84
2021/03/15 13:06:12;;;;;;;7.57;5.20;;;;;;;;;;5026527;28;20409;-81
2021/03/15 13:08:38;;;;;;;8.68;4.70;;;;;;;;;;5027237;28;20448;-85
2021/03/15 13:11:04;;;;;;;6.23;4.80;;;;;;;;;;5010251;28;20512;-87
2021/03/15 13:13:31;;;;;;;6.60;4.67;;;;;;;;;;5027056;28;20477;-90
2021/03/15 13:16:00;;;;;;;9.00;5.07;;;;;;;;;;5017826;28;20830;-91
2021/03/15 13:18:26;;;;;;;6.00;5.20;;;;;;;;;;5015981;28;20402;-87
2021/03/15 13:20:52;;;;;;;7.53;4.68;;;;;;;;;;5016331;28;20390;-87
2021/03/15 13:23:18;;;;;;;5.82;4.88;;;;;;;;;;5018060;28;20379;-85
2021/03/15 13:25:44;;;;;;;6.45;4.50;;;;;;;;;;5036612;28;20871;-85
2021/03/15 13:28:12;;;;;;;6.30;4.43;;;;;;;;;;5035870;28;20417;-82
2021/03/15 13:30:38;;;;;;;4.68;3.78;;;;;;;;;;5015550;28;20482;-87
2021/03/15 13:33:04;;;;;;;6.35;4.63;;;;;;;;;;5017845;28;20475;-85
2021/03/15 13:35:30;;;;;;;7.28;6.03;;;;;;;;;;5017011;28;20752;-82
2021/03/15 13:37:56;;;;;;;6.23;4.70;;;;;;;;;;5015719;28;20378;-84
2021/03/15 13:40:22;;;;;;;7.22;5.60;;;;;;;;;;5036961;28;20391;-85
2021/03/15 13:42:51;;;;;;;7.07;5.38;;;;;;;;;;5037191;28;20847;-82
2021/03/15 13:45:18;;;;;;;5.38;4.75;;;;;;;;;;5018792;28;20421;-85
2021/03/15 13:47:43;;;;;;;7.18;5.00;;;;;;;;;;5037335;28;20409;-84
2021/03/15 13:50:12;;;;;;;6.97;5.00;;;;;;;;;;5034848;28;20747;-82
2021/03/15 13:52:40;;;;;;;7.35;4.93;;;;;;;;;;5016220;28;20448;-84
2021/03/15 13:55:06;;;;;;;7.30;5.13;;;;;;;;;;5037398;28;20392;-85
2021/03/15 13:57:32;;;;;;;8.73;5.60;;;;;;;;;;5018264;28;20421;-85
2021/03/15 13:59:58;;;;;;;8.00;5.45;;;;;;;;;;5037416;28;20408;-86
2021/03/15 14:02:24;;;;;;;6.75;5.00;;;;;;;;;;5037821;28;20371;-87
2021/03/15 14:04:50;;;;;;;8.18;5.93;;;;;;;;;;5014057;28;20481;-85
2021/03/15 14:07:16;;;;;;;8.33;6.43;;;;;;;;;;5017868;28;20447;-85
2021/03/15 14:09:42;;;;;;;8.00;6.38;;;;;;;;;;5037097;28;20884;-86
2021/03/15 14:12:08;;;;;;;9.73;7.38;;;;;;;;;;5018543;28;20405;-86
2021/03/15 14:14:34;;;;;;;8.70;6.68;;;;;;;;;;5037512;28;20484;-84
2021/03/15 14:17:00;;;;;;;12.65;7.07;;;;;;;;;;5037594;28;20938;-84
2021/03/15 14:19:26;;;;;;;9.02;6.95;;;;;;;;;;5037634;28;20391;-86
2021/03/15 14:21:53;;;;;;;9.45;6.75;;;;;;;;;;5016453;28;20468;-84
2021/03/15 14:24:19;;;;;;;10.27;7.13;;;;;;;;;;5016147;28;20390;-85
2021/03/15 14:26:45;;;;;;;10.90;7.07;;;;;;;;;;5014120;28;20420;-83
2021/03/15 14:29:12;;;;;;;9.02;7.40;;;;;;;;;;5014362;28;21060;-88
2021/03/15 14:31:38;;;;;;;10.32;7.38;;;;;;;;;;5016386;28;20887;-84
2021/03/15 14:34:04;;;;;;;10.23;7.18;;;;;;;;;;5035586;28;20457;-82
2021/03/15 14:36:30;;;;;;;11.73;7.10;;;;;;;;;;5023449;28;20474;-86
2021/03/15 14:38:57;;;;;;;11.30;7.50;;;;;;;;;;5015566;28;20379;-81